sensor_id;sensor_type;location;lat;lon;timestamp;temperature;humidity
59208;DHT22;44977;53.132;6.408;2024-01-27T00:03:27;4.40;99.90
59208;DHT22;44977;53.132;6.408;2024-01-27T00:08:28;4.40;99.90
59208;DHT22;44977;53.132;6.408;2024-01-27T00:13:29;4.40;99.90
59208;DHT22;44977;53.132;6.408;2024-01-27T00:18:29;4.30;99.90
59208;DHT22;44977;53.132;6.408;2024-01-27T00:23:30;4.40;99.90
59208;DHT22;44977;53.132;6.408;2024-01-27T00:28:31;4.30;99.90
59208;DHT22;44977;53.132;6.408;2024-01-27T00:33:31;4.30;99.90
59208;DHT22;44977;53.132;6.408;2024-01-27T00:38:32;4.20;99.90
59208;DHT22;44977;53.132;6.408;2024-01-27T00:43:33;4.20;99.90
59208;DHT22;44977;53.132;6.408;2024-01-27T00:48:33;4.10;99.90
59208;DHT22;44977;53.132;6.408;2024-01-27T00:53:34;4.20;99.90
59208;DHT22;44977;53.132;6.408;2024-01-27T00:58:35;4.10;99.90
59208;DHT22;44977;53.132;6.408;2024-01-27T01:03:36;4.10;99.90
59208;DHT22;44977;53.132;6.408;2024-01-27T01:08:36;4.10;99.90
59208;DHT22;44977;53.132;6.408;2024-01-27T01:13:37;4.00;99.90
59208;DHT22;44977;53.132;6.408;2024-01-27T01:18:38;4.00;99.90
59208;DHT22;44977;53.132;6.408;2024-01-27T01:23:39;4.00;99.90
59208;DHT22;44977;53.132;6.408;2024-01-27T01:28:39;4.00;99.90
59208;DHT22;44977;53.132;6.408;2024-01-27T01:33:40;4.00;99.90
59208;DHT22;44977;53.132;6.408;2024-01-27T01:38:41;4.00;99.90
59208;DHT22;44977;53.132;6.408;2024-01-27T01:43:41;4.00;99.90
59208;DHT22;44977;53.132;6.408;2024-01-27T01:48:42;4.00;99.90
59208;DHT22;44977;53.132;6.408;2024-01-27T01:53:45;3.90;99.90
59208;DHT22;44977;53.132;6.408;2024-01-27T01:58:48;3.80;99.90
59208;DHT22;44977;53.132;6.408;2024-01-27T02:03:55;3.80;99.90
59208;DHT22;44977;53.132;6.408;2024-01-27T02:08:56;3.70;99.90
59208;DHT22;44977;53.132;6.408;2024-01-27T02:13:56;3.70;99.90
59208;DHT22;44977;53.132;6.408;2024-01-27T02:18:57;3.60;99.90
59208;DHT22;44977;53.132;6.408;2024-01-27T02:23:58;3.60;99.90
59208;DHT22;44977;53.132;6.408;2024-01-27T02:28:59;3.50;99.90
59208;DHT22;44977;53.132;6.408;2024-01-27T02:33:59;3.50;99.90
59208;DHT22;44977;53.132;6.408;2024-01-27T02:39:00;3.50;99.90
59208;DHT22;44977;53.132;6.408;2024-01-27T02:44:01;3.40;99.90
59208;DHT22;44977;53.132;6.408;2024-01-27T02:49:01;3.40;99.90
59208;DHT22;44977;53.132;6.408;2024-01-27T02:54:02;3.40;99.90
59208;DHT22;44977;53.132;6.408;2024-01-27T02:59:02;3.40;99.90
59208;DHT22;44977;53.132;6.408;2024-01-27T03:04:03;3.30;99.90
59208;DHT22;44977;53.132;6.408;2024-01-27T03:09:04;3.30;99.90
59208;DHT22;44977;53.132;6.408;2024-01-27T03:14:05;3.30;99.90
59208;DHT22;44977;53.132;6.408;2024-01-27T03:19:06;3.30;99.90
59208;DHT22;44977;53.132;6.408;2024-01-27T03:24:07;3.30;99.90
59208;DHT22;44977;53.132;6.408;2024-01-27T03:29:07;3.30;99.90
59208;DHT22;44977;53.132;6.408;2024-01-27T03:34:08;3.30;99.90
59208;DHT22;44977;53.132;6.408;2024-01-27T03:39:09;3.30;99.90
59208;DHT22;44977;53.132;6.408;2024-01-27T03:44:09;3.30;99.90
59208;DHT22;44977;53.132;6.408;2024-01-27T03:49:10;3.30;99.90
59208;DHT22;44977;53.132;6.408;2024-01-27T03:54:11;3.30;99.90
59208;DHT22;44977;53.132;6.408;2024-01-27T03:59:11;3.20;99.90
59208;DHT22;44977;53.132;6.408;2024-01-27T04:04:13;3.20;99.90
59208;DHT22;44977;53.132;6.408;2024-01-27T04:09:13;3.20;99.90
59208;DHT22;44977;53.132;6.408;2024-01-27T04:14:14;3.20;99.90
59208;DHT22;44977;53.132;6.408;2024-01-27T04:19:15;3.20;99.90
59208;DHT22;44977;53.132;6.408;2024-01-27T04:24:15;3.20;99.90
59208;DHT22;44977;53.132;6.408;2024-01-27T04:29:16;3.20;99.90
59208;DHT22;44977;53.132;6.408;2024-01-27T04:34:17;3.20;99.90
59208;DHT22;44977;53.132;6.408;2024-01-27T04:39:18;3.10;99.90
59208;DHT22;44977;53.132;6.408;2024-01-27T04:44:18;3.10;99.90
59208;DHT22;44977;53.132;6.408;2024-01-27T04:49:20;3.10;99.90
59208;DHT22;44977;53.132;6.408;2024-01-27T04:54:22;3.00;99.90
59208;DHT22;44977;53.132;6.408;2024-01-27T04:59:23;3.00;99.90
59208;DHT22;44977;53.132;6.408;2024-01-27T05:04:25;3.00;99.90
59208;DHT22;44977;53.132;6.408;2024-01-27T05:09:27;3.00;99.90
59208;DHT22;44977;53.132;6.408;2024-01-27T05:14:27;3.00;99.90
59208;DHT22;44977;53.132;6.408;2024-01-27T05:19:28;3.00;99.90
59208;DHT22;44977;53.132;6.408;2024-01-27T05:24:29;2.90;99.90
59208;DHT22;44977;53.132;6.408;2024-01-27T05:29:29;2.90;99.90
59208;DHT22;44977;53.132;6.408;2024-01-27T05:34:30;3.00;99.90
59208;DHT22;44977;53.132;6.408;2024-01-27T05:39:31;2.90;99.90
59208;DHT22;44977;53.132;6.408;2024-01-27T05:44:32;2.90;99.90
59208;DHT22;44977;53.132;6.408;2024-01-27T05:49:33;2.90;99.90
59208;DHT22;44977;53.132;6.408;2024-01-27T05:54:34;2.90;99.90
59208;DHT22;44977;53.132;6.408;2024-01-27T05:59:35;2.90;99.90
59208;DHT22;44977;53.132;6.408;2024-01-27T06:04:36;2.90;99.90
59208;DHT22;44977;53.132;6.408;2024-01-27T06:09:39;2.90;99.90
59208;DHT22;44977;53.132;6.408;2024-01-27T06:14:41;2.90;99.90
59208;DHT22;44977;53.132;6.408;2024-01-27T06:19:42;2.90;99.90
59208;DHT22;44977;53.132;6.408;2024-01-27T06:24:43;2.90;99.90
59208;DHT22;44977;53.132;6.408;2024-01-27T06:29:44;2.80;99.90
59208;DHT22;44977;53.132;6.408;2024-01-27T06:34:45;2.80;99.90
59208;DHT22;44977;53.132;6.408;2024-01-27T06:39:45;2.80;99.90
59208;DHT22;44977;53.132;6.408;2024-01-27T06:44:46;2.80;99.90
59208;DHT22;44977;53.132;6.408;2024-01-27T06:49:47;2.80;99.90
59208;DHT22;44977;53.132;6.408;2024-01-27T06:54:47;2.80;99.90
59208;DHT22;44977;53.132;6.408;2024-01-27T06:59:49;2.80;99.90
59208;DHT22;44977;53.132;6.408;2024-01-27T07:04:53;2.80;99.90
59208;DHT22;44977;53.132;6.408;2024-01-27T07:09:57;2.80;99.90
59208;DHT22;44977;53.132;6.408;2024-01-27T07:14:58;2.70;99.90
59208;DHT22;44977;53.132;6.408;2024-01-27T07:20:00;2.80;99.90
59208;DHT22;44977;53.132;6.408;2024-01-27T07:25:00;2.80;99.90
59208;DHT22;44977;53.132;6.408;2024-01-27T07:30:05;2.80;99.90
59208;DHT22;44977;53.132;6.408;2024-01-27T07:35:07;2.70;99.90
59208;DHT22;44977;53.132;6.408;2024-01-27T07:40:09;2.80;99.90
59208;DHT22;44977;53.132;6.408;2024-01-27T07:45:10;2.80;99.90
59208;DHT22;44977;53.132;6.408;2024-01-27T07:50:11;2.80;99.90
59208;DHT22;44977;53.132;6.408;2024-01-27T07:55:12;2.80;99.90
59208;DHT22;44977;53.132;6.408;2024-01-27T08:00:13;2.80;99.90
59208;DHT22;44977;53.132;6.408;2024-01-27T08:05:13;2.90;99.90
59208;DHT22;44977;53.132;6.408;2024-01-27T08:10:14;3.00;99.90
59208;DHT22;44977;53.132;6.408;2024-01-27T08:15:16;3.00;99.90
59208;DHT22;44977;53.132;6.408;2024-01-27T08:20:16;3.10;99.90
59208;DHT22;44977;53.132;6.408;2024-01-27T08:25:18;3.10;99.90
59208;DHT22;44977;53.132;6.408;2024-01-27T08:30:19;3.20;99.90
59208;DHT22;44977;53.132;6.408;2024-01-27T08:35:19;3.30;99.90
59208;DHT22;44977;53.132;6.408;2024-01-27T08:40:20;3.30;99.90
59208;DHT22;44977;53.132;6.408;2024-01-27T08:45:21;3.40;99.90
59208;DHT22;44977;53.132;6.408;2024-01-27T08:50:22;3.40;99.90
59208;DHT22;44977;53.132;6.408;2024-01-27T08:55:22;3.50;99.90
59208;DHT22;44977;53.132;6.408;2024-01-27T09:00:24;3.60;99.90
59208;DHT22;44977;53.132;6.408;2024-01-27T09:05:26;3.80;99.90
59208;DHT22;44977;53.132;6.408;2024-01-27T09:10:28;3.90;99.90
59208;DHT22;44977;53.132;6.408;2024-01-27T09:15:29;4.10;99.90
59208;DHT22;44977;53.132;6.408;2024-01-27T09:20:30;4.20;99.90
59208;DHT22;44977;53.132;6.408;2024-01-27T09:25:30;4.30;99.90
59208;DHT22;44977;53.132;6.408;2024-01-27T09:30:31;4.50;99.90
59208;DHT22;44977;53.132;6.408;2024-01-27T09:35:32;4.50;99.90
59208;DHT22;44977;53.132;6.408;2024-01-27T09:40:33;4.70;99.90
59208;DHT22;44977;53.132;6.408;2024-01-27T09:45:35;4.80;99.90
59208;DHT22;44977;53.132;6.408;2024-01-27T09:50:36;5.00;99.90
59208;DHT22;44977;53.132;6.408;2024-01-27T09:55:37;5.20;99.90
59208;DHT22;44977;53.132;6.408;2024-01-27T10:00:38;5.30;99.90
59208;DHT22;44977;53.132;6.408;2024-01-27T10:05:41;5.40;99.90
59208;DHT22;44977;53.132;6.408;2024-01-27T10:10:42;5.50;99.90
59208;DHT22;44977;53.132;6.408;2024-01-27T10:15:43;5.70;99.90
59208;DHT22;44977;53.132;6.408;2024-01-27T10:20:44;5.90;99.90
59208;DHT22;44977;53.132;6.408;2024-01-27T10:25:45;6.00;99.90
59208;DHT22;44977;53.132;6.408;2024-01-27T10:30:46;6.10;99.90
59208;DHT22;44977;53.132;6.408;2024-01-27T10:35:57;6.10;99.90
59208;DHT22;44977;53.132;6.408;2024-01-27T10:40:59;6.30;99.90
59208;DHT22;44977;53.132;6.408;2024-01-27T10:46:00;6.50;99.90
59208;DHT22;44977;53.132;6.408;2024-01-27T10:51:09;6.50;99.90
59208;DHT22;44977;53.132;6.408;2024-01-27T10:56:11;6.70;99.90
59208;DHT22;44977;53.132;6.408;2024-01-27T11:01:13;6.90;99.90
59208;DHT22;44977;53.132;6.408;2024-01-27T11:06:14;6.90;99.90
59208;DHT22;44977;53.132;6.408;2024-01-27T11:11:17;7.10;99.90
59208;DHT22;44977;53.132;6.408;2024-01-27T11:16:18;7.20;99.90
59208;DHT22;44977;53.132;6.408;2024-01-27T11:21:19;7.20;99.90
59208;DHT22;44977;53.132;6.408;2024-01-27T11:26:21;7.30;99.90
59208;DHT22;44977;53.132;6.408;2024-01-27T11:31:23;7.40;99.90
59208;DHT22;44977;53.132;6.408;2024-01-27T11:36:24;7.50;99.90
59208;DHT22;44977;53.132;6.408;2024-01-27T11:41:28;7.50;99.90
59208;DHT22;44977;53.132;6.408;2024-01-27T11:46:29;7.60;99.90
59208;DHT22;44977;53.132;6.408;2024-01-27T11:51:30;7.70;99.90
59208;DHT22;44977;53.132;6.408;2024-01-27T11:56:31;7.70;99.90
59208;DHT22;44977;53.132;6.408;2024-01-27T12:01:31;7.80;99.90
59208;DHT22;44977;53.132;6.408;2024-01-27T12:06:32;7.90;99.90
59208;DHT22;44977;53.132;6.408;2024-01-27T12:11:33;7.90;99.90
59208;DHT22;44977;53.132;6.408;2024-01-27T12:16:34;7.90;99.90
59208;DHT22;44977;53.132;6.408;2024-01-27T12:21:34;7.90;99.90
59208;DHT22;44977;53.132;6.408;2024-01-27T12:26:35;8.00;99.90
59208;DHT22;44977;53.132;6.408;2024-01-27T12:31:39;8.00;99.90
59208;DHT22;44977;53.132;6.408;2024-01-27T12:36:42;8.00;99.90
59208;DHT22;44977;53.132;6.408;2024-01-27T12:41:42;8.00;99.90
59208;DHT22;44977;53.132;6.408;2024-01-27T12:46:43;8.10;99.90
59208;DHT22;44977;53.132;6.408;2024-01-27T12:51:44;8.10;99.90
59208;DHT22;44977;53.132;6.408;2024-01-27T12:56:46;8.10;99.90
59208;DHT22;44977;53.132;6.408;2024-01-27T13:01:47;8.10;99.90
59208;DHT22;44977;53.132;6.408;2024-01-27T13:06:47;8.20;99.90
59208;DHT22;44977;53.132;6.408;2024-01-27T13:11:48;8.10;99.90
59208;DHT22;44977;53.132;6.408;2024-01-27T13:16:49;8.20;99.90
59208;DHT22;44977;53.132;6.408;2024-01-27T13:21:49;8.20;99.90
59208;DHT22;44977;53.132;6.408;2024-01-27T13:26:50;8.20;99.90
59208;DHT22;44977;53.132;6.408;2024-01-27T13:31:52;8.20;99.90
59208;DHT22;44977;53.132;6.408;2024-01-27T13:36:53;8.30;99.90
59208;DHT22;44977;53.132;6.408;2024-01-27T13:41:54;8.30;99.90
59208;DHT22;44977;53.132;6.408;2024-01-27T13:46:55;8.30;99.90
59208;DHT22;44977;53.132;6.408;2024-01-27T13:52:01;8.30;99.90
59208;DHT22;44977;53.132;6.408;2024-01-27T13:57:02;8.30;99.90
59208;DHT22;44977;53.132;6.408;2024-01-27T14:02:03;8.30;99.90
59208;DHT22;44977;53.132;6.408;2024-01-27T14:07:05;8.30;99.90
59208;DHT22;44977;53.132;6.408;2024-01-27T14:12:10;8.30;99.90
59208;DHT22;44977;53.132;6.408;2024-01-27T14:17:10;8.30;99.90
59208;DHT22;44977;53.132;6.408;2024-01-27T14:22:11;8.20;99.90
59208;DHT22;44977;53.132;6.408;2024-01-27T14:27:12;8.10;99.90
59208;DHT22;44977;53.132;6.408;2024-01-27T14:32:14;8.10;99.90
59208;DHT22;44977;53.132;6.408;2024-01-27T14:37:16;8.00;99.90
59208;DHT22;44977;53.132;6.408;2024-01-27T14:42:16;7.90;99.90
59208;DHT22;44977;53.132;6.408;2024-01-27T14:47:20;7.90;99.90
59208;DHT22;44977;53.132;6.408;2024-01-27T14:52:21;7.90;99.90
59208;DHT22;44977;53.132;6.408;2024-01-27T14:57:22;7.80;99.90
59208;DHT22;44977;53.132;6.408;2024-01-27T15:02:24;7.80;99.90
59208;DHT22;44977;53.132;6.408;2024-01-27T15:07:25;7.70;99.90
59208;DHT22;44977;53.132;6.408;2024-01-27T15:12:30;7.70;99.90
59208;DHT22;44977;53.132;6.408;2024-01-27T15:17:30;7.60;99.90
59208;DHT22;44977;53.132;6.408;2024-01-27T15:22:31;7.50;99.90
59208;DHT22;44977;53.132;6.408;2024-01-27T15:27:32;7.40;99.90
59208;DHT22;44977;53.132;6.408;2024-01-27T15:32:32;7.40;99.90
59208;DHT22;44977;53.132;6.408;2024-01-27T15:37:33;7.30;99.90
59208;DHT22;44977;53.132;6.408;2024-01-27T15:42:34;7.20;99.90
59208;DHT22;44977;53.132;6.408;2024-01-27T15:47:34;7.10;99.90
59208;DHT22;44977;53.132;6.408;2024-01-27T15:52:35;7.10;99.90
59208;DHT22;44977;53.132;6.408;2024-01-27T15:57:36;7.00;99.90
59208;DHT22;44977;53.132;6.408;2024-01-27T16:02:37;6.90;99.90
59208;DHT22;44977;53.132;6.408;2024-01-27T16:07:38;6.80;99.90
59208;DHT22;44977;53.132;6.408;2024-01-27T16:12:39;6.80;99.90
59208;DHT22;44977;53.132;6.408;2024-01-27T16:17:41;6.70;99.90
59208;DHT22;44977;53.132;6.408;2024-01-27T16:22:42;6.60;99.90
59208;DHT22;44977;53.132;6.408;2024-01-27T16:27:43;6.60;99.90
59208;DHT22;44977;53.132;6.408;2024-01-27T16:32:43;6.50;99.90
59208;DHT22;44977;53.132;6.408;2024-01-27T16:37:44;6.40;99.90
59208;DHT22;44977;53.132;6.408;2024-01-27T16:42:45;6.30;99.90
59208;DHT22;44977;53.132;6.408;2024-01-27T16:47:46;6.20;99.90
59208;DHT22;44977;53.132;6.408;2024-01-27T16:52:47;6.20;99.90
59208;DHT22;44977;53.132;6.408;2024-01-27T16:57:48;6.10;99.90
59208;DHT22;44977;53.132;6.408;2024-01-27T17:02:49;6.00;99.90
59208;DHT22;44977;53.132;6.408;2024-01-27T17:07:49;5.90;99.90
59208;DHT22;44977;53.132;6.408;2024-01-27T17:12:50;5.90;99.90
59208;DHT22;44977;53.132;6.408;2024-01-27T17:17:51;5.80;99.90
59208;DHT22;44977;53.132;6.408;2024-01-27T17:22:51;5.80;99.90
59208;DHT22;44977;53.132;6.408;2024-01-27T17:27:52;5.70;99.90
59208;DHT22;44977;53.132;6.408;2024-01-27T17:32:53;5.60;99.90
59208;DHT22;44977;53.132;6.408;2024-01-27T17:37:53;5.50;99.90
59208;DHT22;44977;53.132;6.408;2024-01-27T17:42:54;5.50;99.90
59208;DHT22;44977;53.132;6.408;2024-01-27T17:47:54;5.40;99.90
59208;DHT22;44977;53.132;6.408;2024-01-27T17:52:55;5.30;99.90
59208;DHT22;44977;53.132;6.408;2024-01-27T17:57:56;5.20;99.90
59208;DHT22;44977;53.132;6.408;2024-01-27T18:02:57;5.20;99.90
59208;DHT22;44977;53.132;6.408;2024-01-27T18:07:57;5.10;99.90
59208;DHT22;44977;53.132;6.408;2024-01-27T18:12:58;5.10;99.90
59208;DHT22;44977;53.132;6.408;2024-01-27T18:17:59;5.00;99.90
59208;DHT22;44977;53.132;6.408;2024-01-27T18:23:00;5.00;99.90
59208;DHT22;44977;53.132;6.408;2024-01-27T18:28:02;4.90;99.90
59208;DHT22;44977;53.132;6.408;2024-01-27T18:33:04;4.80;99.90
59208;DHT22;44977;53.132;6.408;2024-01-27T18:38:04;4.80;99.90
59208;DHT22;44977;53.132;6.408;2024-01-27T18:43:05;4.80;99.90
59208;DHT22;44977;53.132;6.408;2024-01-27T18:48:06;4.70;99.90
59208;DHT22;44977;53.132;6.408;2024-01-27T18:53:07;4.70;99.90
59208;DHT22;44977;53.132;6.408;2024-01-27T18:58:07;4.60;99.90
59208;DHT22;44977;53.132;6.408;2024-01-27T19:03:09;4.60;99.90
59208;DHT22;44977;53.132;6.408;2024-01-27T19:08:10;4.50;99.90
59208;DHT22;44977;53.132;6.408;2024-01-27T19:13:13;4.50;99.90
59208;DHT22;44977;53.132;6.408;2024-01-27T19:18:14;4.40;99.90
59208;DHT22;44977;53.132;6.408;2024-01-27T19:23:15;4.40;99.90
59208;DHT22;44977;53.132;6.408;2024-01-27T19:28:15;4.30;99.90
59208;DHT22;44977;53.132;6.408;2024-01-27T19:33:16;4.20;99.90
59208;DHT22;44977;53.132;6.408;2024-01-27T19:38:17;4.20;99.90
59208;DHT22;44977;53.132;6.408;2024-01-27T19:43:17;4.20;99.90
59208;DHT22;44977;53.132;6.408;2024-01-27T19:48:18;4.10;99.90
59208;DHT22;44977;53.132;6.408;2024-01-27T19:53:19;4.10;99.90
59208;DHT22;44977;53.132;6.408;2024-01-27T19:58:20;4.00;99.90
59208;DHT22;44977;53.132;6.408;2024-01-27T20:03:22;4.00;99.90
59208;DHT22;44977;53.132;6.408;2024-01-27T20:08:23;3.90;99.90
59208;DHT22;44977;53.132;6.408;2024-01-27T20:13:24;3.90;99.90
59208;DHT22;44977;53.132;6.408;2024-01-27T20:18:24;3.90;99.90
59208;DHT22;44977;53.132;6.408;2024-01-27T20:23:25;3.80;99.90
59208;DHT22;44977;53.132;6.408;2024-01-27T20:28:26;3.80;99.90
59208;DHT22;44977;53.132;6.408;2024-01-27T20:33:26;3.70;99.90
59208;DHT22;44977;53.132;6.408;2024-01-27T20:38:27;3.70;99.90
59208;DHT22;44977;53.132;6.408;2024-01-27T20:43:28;3.60;99.90
59208;DHT22;44977;53.132;6.408;2024-01-27T20:48:29;3.60;99.90
59208;DHT22;44977;53.132;6.408;2024-01-27T20:53:29;3.50;99.90
59208;DHT22;44977;53.132;6.408;2024-01-27T20:58:30;3.50;99.90
59208;DHT22;44977;53.132;6.408;2024-01-27T21:03:31;3.50;99.90
59208;DHT22;44977;53.132;6.408;2024-01-27T21:08:32;3.40;99.90
59208;DHT22;44977;53.132;6.408;2024-01-27T21:13:32;3.40;99.90
59208;DHT22;44977;53.132;6.408;2024-01-27T21:18:33;3.30;99.90
59208;DHT22;44977;53.132;6.408;2024-01-27T21:23:34;3.30;99.90
59208;DHT22;44977;53.132;6.408;2024-01-27T21:28:34;3.30;99.90
59208;DHT22;44977;53.132;6.408;2024-01-27T21:33:35;3.30;99.90
59208;DHT22;44977;53.132;6.408;2024-01-27T21:38:36;3.20;99.90
59208;DHT22;44977;53.132;6.408;2024-01-27T21:43:36;3.20;99.90
59208;DHT22;44977;53.132;6.408;2024-01-27T21:48:38;3.10;99.90
59208;DHT22;44977;53.132;6.408;2024-01-27T21:53:39;3.10;99.90
59208;DHT22;44977;53.132;6.408;2024-01-27T21:58:41;3.10;99.90
59208;DHT22;44977;53.132;6.408;2024-01-27T22:03:42;3.00;99.90
59208;DHT22;44977;53.132;6.408;2024-01-27T22:08:42;3.00;99.90
59208;DHT22;44977;53.132;6.408;2024-01-27T22:13:44;3.00;99.90
59208;DHT22;44977;53.132;6.408;2024-01-27T22:18:44;2.90;99.90
59208;DHT22;44977;53.132;6.408;2024-01-27T22:23:45;2.90;99.90
59208;DHT22;44977;53.132;6.408;2024-01-27T22:28:46;2.80;99.90
59208;DHT22;44977;53.132;6.408;2024-01-27T22:33:47;2.80;99.90
59208;DHT22;44977;53.132;6.408;2024-01-27T22:38:50;2.70;99.90
59208;DHT22;44977;53.132;6.408;2024-01-27T22:43:52;2.70;99.90
59208;DHT22;44977;53.132;6.408;2024-01-27T22:48:55;2.60;99.90
59208;DHT22;44977;53.132;6.408;2024-01-27T22:53:56;2.60;99.90
59208;DHT22;44977;53.132;6.408;2024-01-27T22:58:57;2.50;99.90
59208;DHT22;44977;53.132;6.408;2024-01-27T23:03:57;2.50;99.90
59208;DHT22;44977;53.132;6.408;2024-01-27T23:08:58;2.40;99.90
59208;DHT22;44977;53.132;6.408;2024-01-27T23:13:59;2.40;99.90
59208;DHT22;44977;53.132;6.408;2024-01-27T23:18:59;2.30;99.90
59208;DHT22;44977;53.132;6.408;2024-01-27T23:24:00;2.30;99.90
59208;DHT22;44977;53.132;6.408;2024-01-27T23:29:01;2.30;99.90
59208;DHT22;44977;53.132;6.408;2024-01-27T23:34:02;2.30;99.90
59208;DHT22;44977;53.132;6.408;2024-01-27T23:39:02;2.30;99.90
59208;DHT22;44977;53.132;6.408;2024-01-27T23:44:03;2.20;99.90
59208;DHT22;44977;53.132;6.408;2024-01-27T23:49:04;2.20;99.90
59208;DHT22;44977;53.132;6.408;2024-01-27T23:54:05;2.20;99.90
59208;DHT22;44977;53.132;6.408;2024-01-27T23:59:13;2.10;99.90
